Time;durP1;ratioP1;P1;durP2;ratioP2;P2;SDS_P1;SDS_P2;PMS_P1;PMS_P2;Temp;Humidity;BMP_temperature;BMP_pressure;BME280_temperature;BME280_humidity;BME280_pressure;Samples;Min_cycle;Max_cycle;Signal;HPM_P1;HPM_P2
2021/07/29 00:00:01;;;;;;;10.70;2.80;;;15.80;99.90;;;;;;5082639;28;20382;-64
2021/07/29 00:02:29;;;;;;;3.80;2.43;;;15.70;99.90;;;;;;5076325;28;20187;-64
2021/07/29 00:04:58;;;;;;;5.70;2.57;;;15.70;99.90;;;;;;5079244;28;20188;-64
2021/07/29 00:07:27;;;;;;;11.13;2.53;;;15.60;99.90;;;;;;5074893;28;20315;-64
2021/07/29 00:09:56;;;;;;;7.17;2.50;;;15.70;99.90;;;;;;5056442;28;20222;-64
2021/07/29 00:12:27;;;;;;;6.20;2.50;;;15.60;99.90;;;;;;5068814;28;20216;-64
2021/07/29 00:14:55;;;;;;;8.27;2.70;;;15.60;99.90;;;;;;5078803;28;20241;-64
2021/07/29 00:19:00;;;;;;;6.30;2.27;;;15.60;99.90;;;;;;5078790;28;20176;-64
2021/07/29 00:20:19;;;;;;;3.70;2.80;;;15.60;99.90;;;;;;5076056;28;20407;-64
2021/07/29 00:22:52;;;;;;;9.93;2.80;;;15.60;99.90;;;;;;5072850;28;21427;-64
2021/07/29 00:25:21;;;;;;;5.60;2.80;;;15.70;99.90;;;;;;5075088;28;20203;-65
2021/07/29 00:27:50;;;;;;;6.37;3.33;;;15.70;99.90;;;;;;5076651;28;20210;-64
2021/07/29 00:30:21;;;;;;;5.70;2.83;;;15.70;99.90;;;;;;5091994;28;20186;-64
2021/07/29 00:32:51;;;;;;;8.27;2.63;;;15.70;99.90;;;;;;5075333;28;20310;-64
2021/07/29 00:35:20;;;;;;;8.13;2.60;;;15.70;99.90;;;;;;5093713;28;20484;-64
2021/07/29 00:37:52;;;;;;;9.80;2.90;;;15.80;99.90;;;;;;5075672;28;20172;-64
2021/07/29 00:40:21;;;;;;;6.10;2.70;;;15.70;99.90;;;;;;5073339;28;20176;-64
2021/07/29 00:42:50;;;;;;;8.50;2.30;;;15.80;99.90;;;;;;5091689;28;20189;-64
2021/07/29 00:45:18;;;;;;;4.60;2.47;;;15.70;99.90;;;;;;5079263;28;20180;-64
2021/07/29 00:47:47;;;;;;;7.23;2.57;;;15.70;99.90;;;;;;5077320;28;20315;-64
2021/07/29 00:50:35;;;;;;;5.70;2.93;;;15.80;99.90;;;;;;5108669;28;20441;-64
2021/07/29 00:53:06;;;;;;;10.17;3.00;;;15.80;99.90;;;;;;5078215;28;20363;-64
2021/07/29 00:55:35;;;;;;;6.33;2.80;;;15.80;99.90;;;;;;5079954;28;20228;-64
2021/07/29 00:58:03;;;;;;;4.77;2.80;;;15.80;99.90;;;;;;5079525;28;20327;-63
2021/07/29 01:00:31;;;;;;;9.13;3.10;;;15.80;99.90;;;;;;5093762;28;20514;-64
2021/07/29 01:03:01;;;;;;;7.90;3.03;;;15.80;99.90;;;;;;5079112;28;20426;-64
2021/07/29 01:05:29;;;;;;;6.57;2.50;;;15.70;99.90;;;;;;5077799;28;20442;-63
2021/07/29 01:07:58;;;;;;;5.67;2.20;;;15.80;99.90;;;;;;5076490;28;20250;-64
2021/07/29 01:10:30;;;;;;;3.37;2.50;;;15.80;99.90;;;;;;5074789;28;20253;-64
2021/07/29 01:12:58;;;;;;;9.97;3.10;;;15.80;99.90;;;;;;5076752;28;20246;-64
2021/07/29 01:15:26;;;;;;;5.70;2.90;;;15.80;99.90;;;;;;5076289;28;20177;-64
2021/07/29 01:18:00;;;;;;;4.13;2.80;;;15.70;99.90;;;;;;5076058;28;20192;-64
2021/07/29 01:20:30;;;;;;;7.10;2.70;;;15.70;99.90;;;;;;5077834;28;20181;-64
2021/07/29 01:22:58;;;;;;;7.13;2.93;;;15.70;99.90;;;;;;5074202;28;20188;-63
2021/07/29 01:25:27;;;;;;;3.57;2.63;;;15.70;99.90;;;;;;5074780;28;20192;-64
2021/07/29 01:27:55;;;;;;;3.90;2.37;;;15.60;99.90;;;;;;5092311;28;20323;-64
2021/07/29 01:30:23;;;;;;;9.33;3.10;;;15.60;99.90;;;;;;5077259;28;20180;-64
2021/07/29 01:32:52;;;;;;;7.37;2.80;;;15.60;99.90;;;;;;5075474;28;20243;-63
2021/07/29 01:35:20;;;;;;;5.63;2.83;;;15.60;99.90;;;;;;5107938;28;20223;-64
2021/07/29 01:37:50;;;;;;;4.53;2.73;;;15.50;99.90;;;;;;5071841;28;20195;-64
2021/07/29 01:40:18;;;;;;;6.53;2.80;;;15.50;99.90;;;;;;5077412;28;20220;-64
2021/07/29 01:42:47;;;;;;;11.43;2.97;;;15.40;99.90;;;;;;5078062;28;20179;-64
2021/07/29 01:45:15;;;;;;;6.30;2.73;;;15.40;99.90;;;;;;5077061;28;20196;-64
2021/07/29 01:47:43;;;;;;;7.60;3.00;;;15.40;99.90;;;;;;5074759;28;20184;-64
2021/07/29 01:50:12;;;;;;;7.33;3.30;;;15.30;99.90;;;;;;5074817;28;20444;-64
2021/07/29 01:52:40;;;;;;;6.50;3.00;;;15.20;99.90;;;;;;5075503;28;20185;-64
2021/07/29 01:55:10;;;;;;;9.70;3.07;;;15.20;99.90;;;;;;5076816;28;20224;-64
2021/07/29 01:57:39;;;;;;;7.17;3.07;;;15.20;99.90;;;;;;5073058;28;20180;-64
2021/07/29 02:00:08;;;;;;;9.83;3.20;;;15.20;99.90;;;;;;5078413;28;20341;-64
2021/07/29 02:02:36;;;;;;;6.13;2.73;;;15.10;99.90;;;;;;5077719;28;20188;-64
2021/07/29 02:05:05;;;;;;;10.67;2.90;;;15.10;99.90;;;;;;5074735;28;20184;-64
2021/07/29 02:07:34;;;;;;;14.20;4.07;;;15.00;99.90;;;;;;5076768;28;20285;-64
2021/07/29 02:10:02;;;;;;;4.13;2.80;;;15.00;99.90;;;;;;5076647;28;20179;-63
2021/07/29 02:12:33;;;;;;;10.23;3.63;;;15.00;99.90;;;;;;5074405;28;20261;-64
2021/07/29 02:15:07;;;;;;;11.60;3.30;;;15.00;99.90;;;;;;5078791;28;20207;-64
2021/07/29 02:17:36;;;;;;;10.13;2.90;;;15.00;99.90;;;;;;5108583;28;20191;-64
2021/07/29 02:20:05;;;;;;;6.07;3.00;;;14.90;99.90;;;;;;5070242;28;20196;-64
2021/07/29 02:22:33;;;;;;;9.10;2.93;;;14.90;99.90;;;;;;5071340;28;20746;-64
2021/07/29 02:25:05;;;;;;;6.47;3.47;;;14.80;99.90;;;;;;5078332;28;20202;-64
2021/07/29 02:27:35;;;;;;;10.27;3.30;;;14.70;99.90;;;;;;5077012;28;20180;-64
2021/07/29 02:30:04;;;;;;;7.60;3.00;;;14.70;99.90;;;;;;5074147;28;20184;-64
2021/07/29 02:32:35;;;;;;;9.93;3.27;;;14.70;99.90;;;;;;5075831;28;20262;-64
2021/07/29 02:35:04;;;;;;;10.50;2.93;;;14.70;99.90;;;;;;5076932;28;21322;-64
2021/07/29 02:37:32;;;;;;;5.60;3.00;;;14.80;99.90;;;;;;5076266;28;20176;-64
2021/07/29 02:40:01;;;;;;;13.40;3.20;;;14.80;99.90;;;;;;5095743;28;20191;-64
2021/07/29 02:42:31;;;;;;;10.03;3.40;;;14.70;99.90;;;;;;5082126;28;20181;-64
2021/07/29 02:45:03;;;;;;;10.77;3.10;;;14.70;99.90;;;;;;5081775;28;20200;-64
2021/07/29 02:47:31;;;;;;;13.47;3.03;;;14.80;99.90;;;;;;5082034;28;20184;-64
2021/07/29 02:50:00;;;;;;;6.67;2.70;;;14.70;99.90;;;;;;5081312;28;20188;-64
2021/07/29 02:52:29;;;;;;;12.57;3.03;;;14.70;99.90;;;;;;5108461;28;20185;-63
2021/07/29 02:54:57;;;;;;;6.90;3.10;;;14.80;99.90;;;;;;5081656;28;20230;-64
2021/07/29 02:57:25;;;;;;;7.93;2.80;;;14.70;99.90;;;;;;5078840;28;20176;-64
2021/07/29 02:59:56;;;;;;;7.93;3.00;;;14.70;99.90;;;;;;5080975;28;20192;-64
2021/07/29 03:02:25;;;;;;;9.50;2.90;;;14.60;99.90;;;;;;5079273;28;20180;-64
2021/07/29 03:04:54;;;;;;;9.53;3.23;;;14.60;99.90;;;;;;5079744;28;20421;-64
2021/07/29 03:07:22;;;;;;;8.93;3.30;;;14.60;99.90;;;;;;5076842;28;20337;-64
2021/07/29 03:09:54;;;;;;;8.77;2.93;;;14.50;99.90;;;;;;5092161;28;20280;-64
2021/07/29 03:12:22;;;;;;;12.40;3.57;;;14.50;99.90;;;;;;5078791;28;20259;-64
2021/07/29 03:14:50;;;;;;;10.23;2.90;;;14.50;99.90;;;;;;5082844;28;20191;-64
2021/07/29 03:17:19;;;;;;;10.07;3.30;;;14.50;99.90;;;;;;5091947;28;20218;-64
2021/07/29 03:19:48;;;;;;;6.20;3.00;;;14.50;99.90;;;;;;5079748;28;20223;-64
2021/07/29 03:22:17;;;;;;;13.57;3.27;;;14.40;99.90;;;;;;5097990;28;20413;-64
2021/07/29 03:24:45;;;;;;;6.20;3.10;;;14.40;99.90;;;;;;5077585;28;20266;-64
2021/07/29 03:27:13;;;;;;;8.57;3.30;;;14.40;99.90;;;;;;5078270;28;20242;-64
2021/07/29 03:29:45;;;;;;;11.63;3.07;;;14.30;99.90;;;;;;5077348;28;20315;-63
2021/07/29 03:32:14;;;;;;;8.50;3.17;;;14.40;99.90;;;;;;5077796;28;20229;-64
2021/07/29 03:34:42;;;;;;;7.80;3.50;;;14.30;99.90;;;;;;5077638;28;20466;-64
2021/07/29 03:37:13;;;;;;;7.03;3.00;;;14.30;99.90;;;;;;5076846;28;20180;-64
2021/07/29 03:39:41;;;;;;;10.03;3.00;;;14.30;99.90;;;;;;5080456;28;20369;-64
2021/07/29 03:42:10;;;;;;;10.50;3.50;;;14.30;99.90;;;;;;5112210;28;20179;-64
2021/07/29 03:44:38;;;;;;;8.07;3.07;;;14.30;99.90;;;;;;5082104;28;20180;-64
2021/07/29 03:47:07;;;;;;;10.30;2.80;;;14.30;99.90;;;;;;5080070;28;20181;-64
2021/07/29 03:49:35;;;;;;;5.77;2.73;;;14.30;99.90;;;;;;5080406;28;20317;-64
2021/07/29 03:52:04;;;;;;;10.07;3.10;;;14.30;99.90;;;;;;5076322;28;20226;-64
2021/07/29 03:54:33;;;;;;;10.63;2.97;;;14.30;99.90;;;;;;5079044;28;20202;-63
2021/07/29 03:57:02;;;;;;;7.27;2.43;;;14.30;99.90;;;;;;5079833;28;20176;-64
2021/07/29 03:59:30;;;;;;;11.10;3.07;;;14.30;99.90;;;;;;5080244;28;20416;-64
2021/07/29 04:01:58;;;;;;;10.97;3.03;;;14.30;99.90;;;;;;5081615;28;20184;-64
2021/07/29 04:04:28;;;;;;;14.00;3.43;;;14.20;99.90;;;;;;5079777;28;20184;-64
2021/07/29 04:06:56;;;;;;;11.53;3.30;;;14.20;99.90;;;;;;5077402;28;20192;-64
2021/07/29 04:09:24;;;;;;;10.43;3.30;;;14.30;99.90;;;;;;5078357;28;20225;-64
2021/07/29 04:11:54;;;;;;;12.17;2.87;;;14.30;99.90;;;;;;5081002;28;20190;-64
2021/07/29 04:14:22;;;;;;;6.40;2.63;;;14.30;99.90;;;;;;5080399;28;20197;-64
2021/07/29 04:16:52;;;;;;;8.13;2.93;;;14.30;99.90;;;;;;5109308;28;20176;-64
2021/07/29 04:19:21;;;;;;;13.33;3.37;;;14.20;99.90;;;;;;5077022;28;20202;-64
2021/07/29 04:21:49;;;;;;;10.30;3.10;;;14.20;99.90;;;;;;5078120;28;20216;-64
2021/07/29 04:24:18;;;;;;;11.70;3.67;;;14.20;99.90;;;;;;5077147;28;20202;-64
2021/07/29 04:26:47;;;;;;;7.07;2.77;;;14.20;99.90;;;;;;5075131;28;20188;-64
2021/07/29 04:29:19;;;;;;;19.13;4.03;;;14.20;99.90;;;;;;5111986;28;20211;-64
2021/07/29 04:31:47;;;;;;;12.83;3.43;;;14.20;99.90;;;;;;5074132;28;20229;-64
2021/07/29 04:34:15;;;;;;;11.53;3.30;;;14.20;99.90;;;;;;5078810;28;20194;-64
2021/07/29 04:36:44;;;;;;;8.73;3.47;;;14.20;99.90;;;;;;5109579;28;20180;-64
2021/07/29 04:39:13;;;;;;;7.43;2.90;;;14.20;99.90;;;;;;5079672;28;20328;-64
2021/07/29 04:41:43;;;;;;;9.87;2.80;;;14.10;99.90;;;;;;5078141;28;20203;-63
2021/07/29 04:44:13;;;;;;;12.80;3.27;;;14.10;99.90;;;;;;5076298;28;20221;-64
2021/07/29 04:46:44;;;;;;;10.07;3.53;;;14.10;99.90;;;;;;5078269;28;20222;-64
2021/07/29 04:49:13;;;;;;;11.00;3.20;;;14.10;99.90;;;;;;5076091;28;20206;-64
2021/07/29 04:51:42;;;;;;;9.43;3.33;;;14.10;99.90;;;;;;5076595;28;20179;-64
2021/07/29 04:54:10;;;;;;;8.53;3.00;;;14.10;99.90;;;;;;5080248;28;20360;-64
2021/07/29 04:56:38;;;;;;;7.53;3.13;;;14.10;99.90;;;;;;5078163;28;20231;-64
2021/07/29 04:59:07;;;;;;;10.93;2.80;;;14.20;99.90;;;;;;5110220;28;20203;-64
2021/07/29 05:01:37;;;;;;;6.77;2.93;;;14.20;99.90;;;;;;5075464;28;20219;-64
2021/07/29 05:04:07;;;;;;;11.10;2.90;;;14.20;99.90;;;;;;5078840;28;20421;-64
2021/07/29 05:06:36;;;;;;;12.37;3.37;;;14.20;99.90;;;;;;5106057;28;20187;-64
2021/07/29 05:09:04;;;;;;;14.77;3.40;;;14.30;99.90;;;;;;5076134;28;20254;-64
2021/07/29 05:11:33;;;;;;;12.50;3.67;;;14.30;99.90;;;;;;5078702;28;20386;-64
2021/07/29 05:14:01;;;;;;;14.10;3.23;;;14.40;99.90;;;;;;5105700;28;20191;-64
2021/07/29 05:16:29;;;;;;;8.87;3.00;;;14.40;99.90;;;;;;5077385;28;20180;-64
2021/07/29 05:18:58;;;;;;;10.23;3.07;;;14.50;99.90;;;;;;5111212;28;20196;-64
2021/07/29 05:21:29;;;;;;;12.63;3.53;;;14.50;99.90;;;;;;5078015;28;20192;-64
2021/07/29 05:23:58;;;;;;;9.07;2.80;;;14.60;99.90;;;;;;5079963;28;20303;-63
2021/07/29 05:26:26;;;;;;;9.73;2.87;;;14.60;99.90;;;;;;5110176;28;20483;-64
2021/07/29 05:28:54;;;;;;;10.70;3.17;;;14.70;99.90;;;;;;5076576;28;20172;-64
2021/07/29 05:31:22;;;;;;;10.77;3.20;;;14.80;99.90;;;;;;5074173;28;20197;-63
2021/07/29 05:33:51;;;;;;;9.70;3.03;;;14.80;99.90;;;;;;5080004;28;20466;-64
2021/07/29 05:36:19;;;;;;;9.70;3.20;;;15.00;99.90;;;;;;5077260;28;20169;-64
2021/07/29 05:38:49;;;;;;;9.27;3.00;;;15.00;99.90;;;;;;5078063;28;20335;-64
2021/07/29 05:41:22;;;;;;;11.40;3.40;;;15.10;99.90;;;;;;5076273;28;20183;-64
2021/07/29 05:43:50;;;;;;;10.53;3.03;;;15.20;99.90;;;;;;5074945;28;20308;-64
2021/07/29 05:46:18;;;;;;;11.67;3.13;;;15.20;99.90;;;;;;5102781;28;20245;-63
2021/07/29 05:48:46;;;;;;;9.87;3.70;;;15.30;99.90;;;;;;5074204;28;20179;-64
2021/07/29 05:51:19;;;;;;;8.00;2.80;;;15.40;99.90;;;;;;5070161;28;20562;-64
2021/07/29 05:53:49;;;;;;;9.07;2.83;;;15.50;99.90;;;;;;5080048;28;20222;-64
2021/07/29 05:56:17;;;;;;;12.37;3.10;;;15.60;99.90;;;;;;5072362;28;20240;-64
2021/07/29 05:58:45;;;;;;;7.27;2.93;;;15.60;99.90;;;;;;5108439;28;20179;-64
2021/07/29 06:01:13;;;;;;;4.60;2.77;;;15.70;99.90;;;;;;5083280;28;20204;-64
2021/07/29 06:03:42;;;;;;;6.23;2.97;;;15.80;99.90;;;;;;5083569;28;20350;-64
2021/07/29 06:06:10;;;;;;;6.13;2.87;;;15.90;99.90;;;;;;5077163;28;20183;-64
2021/07/29 06:08:39;;;;;;;9.87;2.93;;;16.00;99.90;;;;;;5075637;28;20193;-64
2021/07/29 06:11:09;;;;;;;13.07;2.90;;;16.00;99.90;;;;;;5093092;28;20419;-64
2021/07/29 06:13:37;;;;;;;8.60;2.80;;;16.10;99.90;;;;;;5075668;28;20208;-64
2021/07/29 06:16:09;;;;;;;7.33;2.70;;;16.20;99.90;;;;;;5088982;28;20177;-64
2021/07/29 06:18:47;;;;;;;9.67;2.80;;;16.30;99.90;;;;;;5078295;28;20193;-64
2021/07/29 06:21:15;;;;;;;14.93;3.30;;;16.30;99.90;;;;;;5075837;28;20231;-64
2021/07/29 06:23:43;;;;;;;9.93;2.80;;;16.20;99.90;;;;;;5073105;28;20284;-64
2021/07/29 06:26:13;;;;;;;9.10;2.87;;;16.30;99.90;;;;;;5074298;28;20184;-64
2021/07/29 06:28:41;;;;;;;9.80;2.83;;;16.40;99.90;;;;;;5080589;28;20172;-64
2021/07/29 06:31:10;;;;;;;7.67;2.73;;;16.50;99.90;;;;;;5072556;28;20185;-64
2021/07/29 06:33:38;;;;;;;12.27;2.80;;;16.60;99.90;;;;;;5075963;28;20172;-64
2021/07/29 06:36:09;;;;;;;13.30;3.30;;;16.70;99.90;;;;;;5076639;28;20176;-64
2021/07/29 06:38:38;;;;;;;8.53;3.30;;;16.80;99.90;;;;;;5071289;28;20192;-65
2021/07/29 06:41:07;;;;;;;13.43;2.90;;;16.80;99.90;;;;;;5078598;28;20441;-64
2021/07/29 06:43:39;;;;;;;13.37;3.03;;;16.70;99.90;;;;;;5081204;28;20180;-64
2021/07/29 06:46:09;;;;;;;8.67;2.87;;;16.80;99.90;;;;;;5078305;28;20213;-64
2021/07/29 06:48:38;;;;;;;14.10;3.50;;;17.00;99.90;;;;;;5081463;28;20212;-64
2021/07/29 06:51:07;;;;;;;6.27;2.73;;;17.10;99.90;;;;;;5080584;28;20194;-64
2021/07/29 06:53:38;;;;;;;8.47;3.47;;;17.20;99.90;;;;;;5082544;28;20498;-64
2021/07/29 06:56:07;;;;;;;9.13;3.47;;;17.20;99.90;;;;;;5077895;28;20216;-64
2021/07/29 06:58:37;;;;;;;9.10;3.30;;;17.20;99.90;;;;;;5090686;28;20238;-64
2021/07/29 07:01:06;;;;;;;12.70;3.23;;;17.20;99.90;;;;;;5087730;28;20185;-64
2021/07/29 07:03:35;;;;;;;11.43;3.27;;;17.40;99.90;;;;;;5078845;28;20426;-64
2021/07/29 07:06:05;;;;;;;15.87;3.17;;;17.60;99.90;;;;;;5076653;28;20168;-64
2021/07/29 07:08:34;;;;;;;12.70;3.00;;;17.70;99.90;;;;;;5077490;28;20199;-64
2021/07/29 07:11:02;;;;;;;7.27;3.30;;;17.80;99.90;;;;;;5077765;28;20180;-64
2021/07/29 07:13:30;;;;;;;12.10;3.10;;;17.90;99.90;;;;;;5110009;28;20203;-64
2021/07/29 07:16:00;;;;;;;10.23;3.07;;;17.90;99.90;;;;;;5077022;28;20179;-64
2021/07/29 07:18:28;;;;;;;15.70;3.50;;;18.00;99.90;;;;;;5075397;28;20222;-64
2021/07/29 07:21:04;;;;;;;15.00;3.23;;;18.10;99.90;;;;;;5077399;28;20184;-65
2021/07/29 07:23:33;;;;;;;8.73;2.70;;;18.40;99.90;;;;;;5079689;28;20504;-64
2021/07/29 07:26:02;;;;;;;11.90;3.13;;;18.60;99.90;;;;;;5081455;28;20210;-64
2021/07/29 07:28:31;;;;;;;13.93;3.20;;;18.40;99.90;;;;;;5081581;28;20237;-64
2021/07/29 07:31:01;;;;;;;8.93;3.40;;;18.20;99.90;;;;;;5113654;28;20191;-64
2021/07/29 07:33:29;;;;;;;12.00;3.20;;;18.40;99.90;;;;;;5109442;28;20255;-64
2021/07/29 07:36:00;;;;;;;12.13;3.23;;;18.70;99.90;;;;;;5079245;28;20188;-64
2021/07/29 07:38:28;;;;;;;7.23;2.77;;;18.80;99.90;;;;;;5094929;28;20436;-64
2021/07/29 07:40:56;;;;;;;10.30;2.80;;;18.70;99.90;;;;;;5081367;28;20211;-64
2021/07/29 07:43:25;;;;;;;8.13;2.77;;;18.40;99.90;;;;;;5112841;28;20228;-64
2021/07/29 07:45:53;;;;;;;12.40;3.20;;;18.50;99.90;;;;;;5114134;28;20229;-64
2021/07/29 07:48:23;;;;;;;10.77;3.10;;;18.60;99.90;;;;;;5080057;28;20462;-64
2021/07/29 07:50:52;;;;;;;9.93;3.23;;;18.80;99.90;;;;;;5113621;28;20213;-64
2021/07/29 07:53:24;;;;;;;8.10;2.40;;;19.00;99.90;;;;;;5113415;28;20194;-64
2021/07/29 07:55:52;;;;;;;9.83;2.97;;;19.10;99.90;;;;;;5079125;28;20223;-65
2021/07/29 07:58:21;;;;;;;10.93;2.90;;;19.40;99.90;;;;;;5080078;28;20184;-65
2021/07/29 08:00:50;;;;;;;8.47;2.67;;;19.40;99.90;;;;;;5082904;28;20221;-64
2021/07/29 08:03:18;;;;;;;11.57;2.63;;;19.80;99.90;;;;;;5084481;28;20196;-64
2021/07/29 08:05:48;;;;;;;8.47;2.90;;;19.80;99.90;;;;;;5083116;28;20234;-65
2021/07/29 08:08:16;;;;;;;5.97;2.30;;;20.20;99.90;;;;;;5093890;28;20434;-65
2021/07/29 08:10:49;;;;;;;8.73;3.33;;;20.20;99.90;;;;;;5079067;28;20176;-65
2021/07/29 08:13:17;;;;;;;8.50;2.80;;;20.10;99.90;;;;;;5079944;28;20180;-64
2021/07/29 08:15:46;;;;;;;8.57;2.90;;;20.40;99.90;;;;;;5104689;28;20391;-64
2021/07/29 08:18:15;;;;;;;7.60;2.87;;;20.30;99.90;;;;;;5080333;28;20188;-65
2021/07/29 08:20:44;;;;;;;8.43;2.97;;;20.20;99.90;;;;;;5081379;28;20183;-65
2021/07/29 08:23:13;;;;;;;8.83;3.17;;;19.80;99.90;;;;;;5082487;28;20247;-65
2021/07/29 08:25:41;;;;;;;7.37;2.67;;;19.80;99.90;;;;;;5077178;28;20805;-64
2021/07/29 08:28:10;;;;;;;8.23;2.93;;;19.70;99.90;;;;;;5083524;28;20345;-65
2021/07/29 08:30:39;;;;;;;9.20;3.10;;;19.90;99.90;;;;;;5078969;28;20180;-64
2021/07/29 08:33:11;;;;;;;5.80;2.70;;;20.00;99.90;;;;;;5078400;28;20184;-64
2021/07/29 08:35:44;;;;;;;9.80;3.00;;;20.20;99.90;;;;;;5083394;28;20319;-64
2021/07/29 08:38:14;;;;;;;5.77;2.93;;;20.30;99.90;;;;;;5095707;28;20410;-65
2021/07/29 08:40:42;;;;;;;5.53;2.97;;;20.90;99.90;;;;;;5075973;28;20196;-65
2021/07/29 08:43:11;;;;;;;7.43;2.70;;;21.40;99.90;;;;;;5078360;28;20215;-64
2021/07/29 08:45:43;;;;;;;7.97;3.20;;;21.20;99.90;;;;;;5079732;28;20184;-65
2021/07/29 08:48:13;;;;;;;6.87;2.77;;;21.10;99.90;;;;;;5076458;28;20685;-64
2021/07/29 08:50:42;;;;;;;6.87;2.87;;;21.30;99.90;;;;;;5078639;28;20231;-64
2021/07/29 08:53:10;;;;;;;6.37;2.70;;;21.20;99.90;;;;;;5112562;28;20223;-65
2021/07/29 08:55:40;;;;;;;9.20;2.93;;;21.70;99.90;;;;;;5078236;28;20224;-65
2021/07/29 08:58:12;;;;;;;9.47;2.83;;;21.90;99.90;;;;;;5077995;28;20194;-65
2021/07/29 09:00:40;;;;;;;12.87;3.07;;;22.20;99.90;;;;;;5091383;28;20182;-65
2021/07/29 09:03:24;;;;;;;9.30;2.40;;;22.40;99.90;;;;;;5090610;28;20245;-65
2021/07/29 09:06:01;;;;;;;6.90;2.60;;;22.60;99.90;;;;;;5079974;28;20199;-65
2021/07/29 09:08:29;;;;;;;5.73;2.40;;;23.00;99.90;;;;;;5079559;28;20186;-65
2021/07/29 09:11:02;;;;;;;10.30;2.30;;;23.40;99.90;;;;;;5082598;28;20208;-65
2021/07/29 09:13:31;;;;;;;4.87;2.40;;;23.60;99.90;;;;;;5081383;28;20294;-65
2021/07/29 09:16:14;;;;;;;5.37;2.10;;;23.60;99.90;;;;;;5079187;28;20191;-65
2021/07/29 09:18:43;;;;;;;6.17;2.23;;;24.20;99.90;;;;;;5081560;28;20438;-66
2021/07/29 09:21:12;;;;;;;6.53;2.40;;;24.30;99.90;;;;;;5077922;28;20326;-65
2021/07/29 09:23:40;;;;;;;8.00;2.67;;;24.00;99.90;;;;;;5075970;28;20219;-65
2021/07/29 09:26:10;;;;;;;6.93;2.63;;;23.50;99.90;;;;;;5081039;28;20184;-65
2021/07/29 09:28:39;;;;;;;7.60;2.40;;;23.40;99.90;;;;;;5077040;28;20364;-65
2021/07/29 09:31:22;;;;;;;5.27;2.40;;;22.80;99.90;;;;;;5078975;28;20180;-65
2021/07/29 09:33:58;;;;;;;8.80;2.83;;;23.20;99.90;;;;;;5077172;28;20176;-65
2021/07/29 09:36:31;;;;;;;6.43;2.73;;;22.80;99.90;;;;;;5071821;28;20241;-65
2021/07/29 09:39:20;;;;;;;4.93;2.20;;;22.80;99.90;;;;;;5075938;28;20194;-65
2021/07/29 09:41:54;;;;;;;6.13;2.53;;;22.70;99.90;;;;;;5108311;28;20181;-65
2021/07/29 09:44:42;;;;;;;6.37;2.60;;;22.60;99.90;;;;;;5080838;28;20477;-65
2021/07/29 09:47:10;;;;;;;6.77;2.47;;;22.70;99.90;;;;;;5077731;28;20181;-65
2021/07/29 09:49:40;;;;;;;5.33;2.53;;;22.60;99.90;;;;;;5078889;28;20188;-65
2021/07/29 09:52:09;;;;;;;7.83;2.83;;;22.00;99.90;;;;;;5076079;28;20184;-65
2021/07/29 09:54:39;;;;;;;7.97;2.47;;;21.80;99.90;;;;;;5077129;28;20423;-65
2021/07/29 09:57:11;;;;;;;8.93;2.83;;;22.00;99.90;;;;;;5075343;28;20211;-65
2021/07/29 09:59:40;;;;;;;5.43;2.50;;;21.70;99.90;;;;;;5076149;28;20177;-65
2021/07/29 10:02:09;;;;;;;8.60;2.80;;;21.40;99.90;;;;;;5078887;28;20234;-66
2021/07/29 10:04:44;;;;;;;7.17;2.23;;;21.00;99.90;;;;;;5076804;28;20204;-65
2021/07/29 10:07:31;;;;;;;3.43;2.20;;;21.00;99.90;;;;;;5075234;28;20230;-65
2021/07/29 10:10:03;;;;;;;6.53;2.47;;;22.10;99.90;;;;;;5078280;28;20423;-65
2021/07/29 10:12:33;;;;;;;2.87;2.20;;;23.10;99.90;;;;;;5079297;28;20186;-66
2021/07/29 10:15:03;;;;;;;4.33;2.20;;;24.10;99.90;;;;;;5077076;28;20367;-66
2021/07/29 10:18:02;;;;;;;5.07;2.47;;;24.90;99.90;;;;;;5110580;28;20366;-66
2021/07/29 10:20:34;;;;;;;7.57;2.13;;;25.10;99.90;;;;;;5072373;28;20189;-66
2021/07/29 10:23:31;;;;;;;10.07;2.43;;;25.10;99.90;;;;;;5078672;28;20269;-65
2021/07/29 10:26:07;;;;;;;6.73;2.70;;;24.70;99.90;;;;;;5064686;28;20199;-66
2021/07/29 10:28:41;;;;;;;5.50;2.70;;;24.50;99.90;;;;;;5072633;28;20214;-66
2021/07/29 10:31:15;;;;;;;3.80;2.23;;;24.20;99.90;;;;;;5076134;28;20204;-66
2021/07/29 10:33:44;;;;;;;7.97;2.70;;;24.20;99.90;;;;;;5073348;28;20192;-66
2021/07/29 10:36:43;;;;;;;5.80;2.50;;;23.60;99.90;;;;;;5073377;28;20261;-66
2021/07/29 10:39:12;;;;;;;2.73;2.23;;;22.70;99.90;;;;;;5078319;28;20208;-66
2021/07/29 10:41:45;;;;;;;6.03;2.33;;;22.60;99.90;;;;;;5079356;28;20315;-66
2021/07/29 10:44:48;;;;;;;3.17;2.47;;;23.00;99.90;;;;;;5074146;28;20252;-65
2021/07/29 10:47:35;;;;;;;8.87;2.70;;;23.10;99.90;;;;;;5069826;28;20392;-66
2021/07/29 10:50:14;;;;;;;4.43;2.43;;;22.70;99.90;;;;;;5081180;28;20496;-65
2021/07/29 10:52:47;;;;;;;4.93;2.67;;;22.50;99.90;;;;;;5080317;28;20219;-65
2021/07/29 10:55:17;;;;;;;5.00;2.63;;;22.60;99.90;;;;;;5077756;28;20278;-65
2021/07/29 10:58:10;;;;;;;5.87;2.47;;;22.80;99.90;;;;;;5075839;28;20471;-65
2021/07/29 11:00:52;;;;;;;7.93;2.50;;;22.70;99.90;;;;;;5078852;28;20184;-66
2021/07/29 11:03:23;;;;;;;4.90;2.40;;;23.20;99.90;;;;;;5080543;28;20238;-65
2021/07/29 11:06:03;;;;;;;7.30;2.50;;;23.70;99.90;;;;;;5079253;28;20177;-66
2021/07/29 11:08:32;;;;;;;7.10;2.50;;;24.10;99.90;;;;;;5115506;28;20202;-66
2021/07/29 11:11:02;;;;;;;5.07;2.80;;;24.40;99.90;;;;;;5078942;28;20191;-66
2021/07/29 11:13:32;;;;;;;9.87;2.70;;;24.60;99.90;;;;;;5080351;28;20213;-66
2021/07/29 11:16:04;;;;;;;6.03;2.47;;;24.10;99.90;;;;;;5080528;28;20443;-66
2021/07/29 11:18:32;;;;;;;7.60;2.67;;;23.40;99.90;;;;;;5095513;28;20195;-65
2021/07/29 11:21:13;;;;;;;4.23;2.50;;;23.40;99.90;;;;;;5080865;28;20198;-65
2021/07/29 11:23:41;;;;;;;6.47;2.77;;;23.90;99.90;;;;;;5082201;28;21194;-70
2021/07/29 11:26:10;;;;;;;5.57;2.83;;;24.10;99.90;;;;;;5080291;28;20335;-66
2021/07/29 11:28:38;;;;;;;11.20;2.83;;;23.70;99.90;;;;;;5081746;28;20182;-67
2021/07/29 11:31:24;;;;;;;7.87;3.10;;;23.10;99.90;;;;;;5080017;28;20185;-67
2021/07/29 11:33:53;;;;;;;7.70;3.03;;;22.60;99.90;;;;;;5084937;28;20215;-68
2021/07/29 11:36:21;;;;;;;9.20;3.10;;;22.20;99.90;;;;;;5080262;28;20189;-68
2021/07/29 11:39:01;;;;;;;7.90;2.77;;;21.80;99.90;;;;;;5080736;28;20191;-67
2021/07/29 11:41:30;;;;;;;12.50;3.73;;;22.00;99.90;;;;;;5079956;28;20200;-67
2021/07/29 11:44:00;;;;;;;10.27;3.43;;;21.80;99.90;;;;;;5086052;28;20228;-67
2021/07/29 11:46:30;;;;;;;6.07;2.90;;;21.60;99.90;;;;;;5077298;28;20302;-66
2021/07/29 11:49:06;;;;;;;13.67;3.50;;;21.40;99.90;;;;;;5082216;28;20388;-67
2021/07/29 11:51:35;;;;;;;6.70;2.87;;;21.10;99.90;;;;;;5083025;28;20182;-66
2021/07/29 11:54:03;;;;;;;8.53;2.70;;;21.00;99.90;;;;;;5080183;28;20176;-66
2021/07/29 11:56:31;;;;;;;8.10;3.23;;;21.10;99.90;;;;;;5078729;28;20212;-66
2021/07/29 11:59:03;;;;;;;10.70;3.27;;;21.70;99.90;;;;;;5113320;28;20206;-68
2021/07/29 12:01:34;;;;;;;6.43;2.90;;;22.30;99.90;;;;;;5079175;28;20192;-65
2021/07/29 12:04:03;;;;;;;8.37;3.00;;;22.80;99.90;;;;;;5112934;28;20230;-66
2021/07/29 12:06:32;;;;;;;8.00;2.73;;;23.10;99.90;;;;;;5080079;28;20185;-64
2021/07/29 12:09:00;;;;;;;8.30;2.90;;;23.20;99.90;;;;;;5081592;28;20196;-64
2021/07/29 12:11:31;;;;;;;7.73;2.90;;;22.70;99.90;;;;;;5092857;28;20444;-64
2021/07/29 12:14:00;;;;;;;7.33;3.10;;;22.20;99.90;;;;;;5081558;28;20169;-64
2021/07/29 12:16:50;;;;;;;5.37;2.77;;;21.90;99.90;;;;;;5077926;28;20234;-64
2021/07/29 12:19:19;;;;;;;8.23;3.10;;;22.20;99.90;;;;;;5080260;28;20186;-65
2021/07/29 12:21:49;;;;;;;5.20;2.77;;;22.50;99.90;;;;;;5078666;28;20180;-65
2021/07/29 12:24:18;;;;;;;9.43;3.20;;;22.80;99.90;;;;;;5081007;28;20231;-65
2021/07/29 12:27:09;;;;;;;5.73;2.97;;;22.90;99.90;;;;;;5079648;28;20195;-65
2021/07/29 12:29:41;;;;;;;6.17;3.00;;;22.70;99.90;;;;;;5078348;28;20250;-64
2021/07/29 12:32:24;;;;;;;7.87;3.20;;;22.60;99.90;;;;;;5079539;28;20207;-65
2021/07/29 12:34:54;;;;;;;5.77;2.60;;;22.50;99.90;;;;;;5077176;28;20184;-64
2021/07/29 12:37:30;;;;;;;7.77;3.37;;;22.40;99.90;;;;;;5078279;28;20241;-65
2021/07/29 12:39:59;;;;;;;10.00;3.20;;;22.50;99.90;;;;;;5079775;28;20359;-64
2021/07/29 12:42:30;;;;;;;8.00;3.13;;;22.70;99.90;;;;;;5079428;28;20188;-65
2021/07/29 12:45:00;;;;;;;9.60;2.77;;;22.70;99.90;;;;;;5078201;28;20427;-65
2021/07/29 12:47:30;;;;;;;6.77;3.00;;;22.80;99.90;;;;;;5079893;28;20179;-65
2021/07/29 12:49:58;;;;;;;5.47;2.87;;;22.80;99.90;;;;;;5075922;28;20444;-65
2021/07/29 12:52:27;;;;;;;9.50;3.40;;;22.90;99.90;;;;;;5077903;28;20192;-65
2021/07/29 12:55:01;;;;;;;8.57;2.80;;;23.00;99.90;;;;;;5078332;28;20283;-65
2021/07/29 12:57:29;;;;;;;6.97;2.80;;;22.80;99.90;;;;;;5078032;28;20188;-64
2021/07/29 12:59:58;;;;;;;10.70;3.10;;;22.60;99.90;;;;;;5076402;28;20208;-65